Time;durP1;ratioP1;P1;durP2;ratioP2;P2;SDS_P1;SDS_P2;PMS_P1;PMS_P2;Temp;Humidity;BMP_temperature;BMP_pressure;BME280_temperature;BME280_humidity;BME280_pressure;Samples;Min_cycle;Max_cycle;Signal;HPM_P1;HPM_P2
2022/07/14 00:02:12;;;;;;;3.72;2.53;;;;;;;19.02;48.72;99214.38;5072971;28;20041;-94
2022/07/14 00:04:39;;;;;;;5.18;2.63;;;;;;;18.83;48.86;99211.81;5072753;28;20412;-92
2022/07/14 00:07:05;;;;;;;5.25;2.67;;;;;;;18.79;49.50;99215.63;5072156;28;20044;-92
2022/07/14 00:09:31;;;;;;;5.00;2.83;;;;;;;18.59;49.71;99212.13;5072595;28;20032;-93
2022/07/14 00:11:57;;;;;;;5.07;2.80;;;;;;;18.64;49.42;99218.13;5072786;28;20044;-94
2022/07/14 00:14:23;;;;;;;4.45;2.78;;;;;;;18.42;49.44;99207.63;5077622;28;20048;-93
2022/07/14 00:16:49;;;;;;;4.60;2.40;;;;;;;18.42;49.84;99223.78;5075638;28;20093;-92
2022/07/14 00:19:14;;;;;;;5.75;2.40;;;;;;;18.12;49.42;99195.75;5077482;28;20068;-92
2022/07/14 00:21:42;;;;;;;5.20;2.85;;;;;;;18.02;51.01;99207.00;5076690;28;20033;-93
2022/07/14 00:24:11;;;;;;;3.40;2.50;;;;;;;17.95;49.50;99194.78;5076604;28;20033;-92
2022/07/14 00:26:37;;;;;;;4.05;2.60;;;;;;;18.05;49.22;99214.03;5076364;28;20057;-93
2022/07/14 00:29:03;;;;;;;3.65;2.50;;;;;;;18.03;49.42;99222.19;5076412;28;20044;-92
2022/07/14 00:31:28;;;;;;;3.28;2.30;;;;;;;17.92;49.08;99203.00;5076294;28;20529;-93
2022/07/14 00:33:54;;;;;;;3.88;2.42;;;;;;;17.98;49.40;99207.22;5076165;28;20036;-93
2022/07/14 00:36:20;;;;;;;4.22;2.80;;;;;;;17.98;49.77;99205.41;5076293;28;20028;-93
2022/07/14 00:38:47;;;;;;;5.28;2.40;;;;;;;17.95;49.56;99193.91;5076064;28;20505;-93
2022/07/14 00:41:13;;;;;;;4.15;2.60;;;;;;;18.01;49.93;99213.31;5075615;28;20032;-93
2022/07/14 00:43:39;;;;;;;5.97;2.50;;;;;;;17.96;49.96;99210.00;5075231;28;20102;-93
2022/07/14 00:46:04;;;;;;;7.25;2.80;;;;;;;18.08;50.33;99211.19;5075849;28;20214;-93
2022/07/14 00:48:30;;;;;;;3.17;2.58;;;;;;;18.08;50.16;99197.72;5075862;28;20482;-93
2022/07/14 00:50:56;;;;;;;6.50;2.90;;;;;;;18.21;50.35;99214.97;5075987;28;20040;-93
2022/07/14 00:53:22;;;;;;;3.65;2.50;;;;;;;18.15;50.25;99193.78;5075562;28;20041;-93
2022/07/14 00:55:49;;;;;;;4.35;2.60;;;;;;;18.23;50.20;99206.84;5075998;28;20128;-94
2022/07/14 00:58:15;;;;;;;4.10;2.67;;;;;;;18.17;50.27;99189.19;5076345;28;20394;-92
2022/07/14 01:00:42;;;;;;;4.75;2.85;;;;;;;18.18;50.23;99192.75;5076288;28;20074;-93
2022/07/14 01:03:08;;;;;;;6.53;2.83;;;;;;;18.16;51.59;99202.72;5076590;28;20044;-94
2022/07/14 01:05:34;;;;;;;5.15;2.67;;;;;;;18.05;51.74;99198.75;5075170;28;20502;-92
2022/07/14 01:07:59;;;;;;;4.05;2.78;;;;;;;18.06;51.05;99207.69;5075801;28;20123;-92
2022/07/14 01:10:25;;;;;;;4.18;3.20;;;;;;;18.02;51.26;99198.03;5075510;28;20051;-92
2022/07/14 01:12:53;;;;;;;5.38;2.90;;;;;;;17.75;51.22;99163.47;5077662;28;20037;-93
2022/07/14 01:15:19;;;;;;;7.43;3.72;;;;;;;17.88;51.96;99204.13;5076982;28;20433;-92
2022/07/14 01:17:47;;;;;;;4.53;2.88;;;;;;;17.60;52.32;99175.00;5077112;28;20547;-93
2022/07/14 01:20:13;;;;;;;3.35;2.63;;;;;;;17.63;52.35;99177.50;5075586;28;20036;-91
2022/07/14 01:22:40;;;;;;;3.85;2.83;;;;;;;17.83;52.30;99198.97;5075462;28;20064;-93
2022/07/14 01:25:07;;;;;;;4.47;2.45;;;;;;;17.89;52.10;99202.28;5075750;28;20090;-94
2022/07/14 01:27:33;;;;;;;3.42;2.55;;;;;;;17.78;52.50;99197.41;5075262;28;20044;-92
2022/07/14 01:29:58;;;;;;;5.35;2.70;;;;;;;17.63;52.83;99202.63;5075487;28;20509;-93
2022/07/14 01:32:24;;;;;;;4.53;2.70;;;;;;;17.55;53.00;99199.41;5075485;28;20051;-92
2022/07/14 01:34:50;;;;;;;4.22;2.55;;;;;;;17.42;53.78;99204.53;5075112;28;20040;-92
2022/07/14 01:37:16;;;;;;;4.15;2.60;;;;;;;17.36;54.10;99199.44;5076478;28;20068;-93
2022/07/14 01:39:43;;;;;;;4.10;2.45;;;;;;;17.33;54.20;99204.09;5076585;28;20036;-94
2022/07/14 01:42:09;;;;;;;3.50;2.42;;;;;;;17.16;53.97;99183.41;5075913;28;20051;-94
2022/07/14 01:44:35;;;;;;;4.03;2.70;;;;;;;17.16;53.68;99195.00;5075823;28;20045;-93
2022/07/14 01:47:01;;;;;;;4.18;2.50;;;;;;;17.04;53.58;99187.53;5075789;28;20037;-92
2022/07/14 01:49:27;;;;;;;4.57;2.90;;;;;;;17.21;53.70;99218.97;5076417;28;20060;-93
2022/07/14 01:51:53;;;;;;;4.18;2.60;;;;;;;17.15;53.72;99206.69;5076175;28;20041;-92
2022/07/14 01:54:19;;;;;;;6.18;2.75;;;;;;;17.15;54.23;99213.88;5075789;28;20028;-93
2022/07/14 01:56:46;;;;;;;5.10;2.70;;;;;;;17.18;54.99;99228.06;5073662;28;20044;-92
2022/07/14 01:59:12;;;;;;;5.40;2.70;;;;;;;17.14;54.93;99226.47;5074412;28;20064;-93
2022/07/14 02:01:40;;;;;;;4.97;3.10;;;;;;;16.89;55.66;99204.34;5074750;28;20102;-93
2022/07/14 02:04:06;;;;;;;;;;;;;;;16.94;55.51;99227.38;5075376;28;20094;-93
2022/07/14 02:06:32;;;;;;;4.07;2.90;;;;;;;16.76;55.94;99206.69;5070042;28;19932;-92
2022/07/14 02:08:59;;;;;;;3.33;2.38;;;;;;;16.72;56.28;99219.41;5076082;28;20043;-94
2022/07/14 02:14:24;;;;;;;4.15;2.90;;;;;;;16.43;56.56;99207.25;5103948;27;20402;-93
2022/07/14 02:16:50;;;;;;;3.75;2.42;;;;;;;16.52;55.72;99209.53;5071627;28;20029;-93
2022/07/14 02:19:16;;;;;;;3.97;2.60;;;;;;;16.50;55.65;99214.09;5071296;28;20128;-93
2022/07/14 02:21:42;;;;;;;3.72;2.60;;;;;;;16.52;55.03;99187.19;5071327;28;20095;-94
2022/07/14 02:24:09;;;;;;;3.97;2.78;;;;;;;16.76;54.48;99201.31;5070717;28;20051;-92
2022/07/14 02:26:35;;;;;;;3.28;2.40;;;;;;;16.62;54.60;99167.06;5071619;28;20044;-94
2022/07/14 02:29:01;;;;;;;3.13;2.38;;;;;;;16.68;54.22;99168.59;5072614;28;20528;-94
2022/07/14 02:31:29;;;;;;;4.50;2.78;;;;;;;16.69;54.44;99173.00;5071807;28;20098;-94
2022/07/14 02:33:54;;;;;;;6.57;2.50;;;;;;;16.80;53.89;99185.03;5070900;28;20478;-94
2022/07/14 02:36:20;;;;;;;3.47;2.45;;;;;;;16.94;51.74;99187.09;5070713;28;20136;-94
2022/07/14 02:38:46;;;;;;;3.40;2.45;;;;;;;17.25;49.65;99191.00;5070899;28;20429;-94
2022/07/14 02:41:13;;;;;;;2.97;2.35;;;;;;;17.42;47.72;99174.94;5071848;28;20047;-94
2022/07/14 02:43:38;;;;;;;3.95;2.10;;;;;;;17.71;47.22;99179.84;5072141;28;20033;-94
2022/07/14 02:46:04;;;;;;;4.70;2.45;;;;;;;17.80;46.64;99160.53;5072427;28;20380;-94
2022/07/14 02:48:32;;;;;;;3.50;2.40;;;;;;;18.06;46.24;99183.47;5070903;28;20131;-94
2022/07/14 02:50:59;;;;;;;4.18;2.30;;;;;;;18.30;45.94;99197.47;5070638;28;20127;-94
2022/07/14 02:53:24;;;;;;;4.00;2.50;;;;;;;18.16;45.84;99182.06;5070442;28;20041;-94
2022/07/14 02:55:50;;;;;;;3.40;2.30;;;;;;;18.26;45.91;99196.78;5070440;28;20444;-93
2022/07/14 02:58:18;;;;;;;2.80;2.20;;;;;;;18.24;46.51;99193.31;5070311;28;20449;-91
2022/07/14 03:00:44;;;;;;;3.08;2.47;;;;;;;17.99;47.09;99168.59;5068254;28;20045;-91
2022/07/14 03:03:10;;;;;;;3.70;2.47;;;;;;;18.06;47.48;99192.44;5070669;28;20110;-91
2022/07/14 03:05:37;;;;;;;2.92;2.35;;;;;;;17.94;48.00;99181.41;5071084;28;20090;-94
2022/07/14 03:08:04;;;;;;;3.35;2.40;;;;;;;17.77;48.71;99166.09;5070342;28;20062;-93
2022/07/14 03:10:30;;;;;;;5.40;2.50;;;;;;;17.90;48.96;99207.59;5069728;28;20051;-94
2022/07/14 03:12:56;;;;;;;4.18;2.47;;;;;;;17.74;49.83;99193.13;5069690;28;20068;-93
2022/07/14 03:15:22;;;;;;;3.67;2.40;;;;;;;17.57;49.54;99173.34;5070062;28;20072;-90
2022/07/14 03:17:48;;;;;;;3.70;2.50;;;;;;;17.63;49.59;99197.25;5071586;28;20051;-94
2022/07/14 03:20:14;;;;;;;4.40;2.40;;;;;;;17.60;49.95;99202.75;5071810;28;20079;-94
2022/07/14 03:22:42;;;;;;;4.25;2.53;;;;;;;17.47;50.04;99195.38;5071767;28;20119;-94
2022/07/14 03:25:09;;;;;;;9.23;2.50;;;;;;;17.38;50.53;99199.38;5059299;28;20082;-94
2022/07/14 03:27:35;;;;;;;3.38;2.38;;;;;;;17.20;50.28;99193.06;5056777;28;20119;-93
2022/07/14 03:30:02;;;;;;;4.03;2.35;;;;;;;17.32;50.50;99208.59;5056497;28;20034;-93
2022/07/14 03:32:27;;;;;;;3.38;2.30;;;;;;;17.20;49.98;99183.19;5056462;28;20037;-93
2022/07/14 03:34:53;;;;;;;3.40;2.47;;;;;;;17.34;50.26;99209.38;5056448;28;20401;-93
2022/07/14 03:37:19;;;;;;;5.43;2.80;;;;;;;17.30;52.07;99207.78;5055988;28;20057;-91
2022/07/14 03:39:46;;;;;;;3.90;2.63;;;;;;;17.31;52.31;99206.00;5055625;28;20098;-93
2022/07/14 03:42:12;;;;;;;3.78;2.33;;;;;;;17.27;50.07;99216.00;5055587;28;20482;-92
2022/07/14 03:44:38;;;;;;;3.28;2.50;;;;;;;17.22;50.05;99210.84;5056248;28;20103;-94
2022/07/14 03:47:04;;;;;;;4.07;2.60;;;;;;;17.11;50.49;99212.28;5057910;28;20057;-95
2022/07/14 03:49:30;;;;;;;3.30;2.50;;;;;;;16.93;51.03;99189.84;5058096;28;20498;-94
2022/07/14 03:51:55;;;;;;;4.05;2.67;;;;;;;16.78;51.72;99205.66;5057463;28;20041;-92
2022/07/14 03:54:21;;;;;;;3.05;2.40;;;;;;;16.72;51.94;99213.13;5055785;28;20044;-94
2022/07/14 03:56:49;;;;;;;3.63;2.58;;;;;;;16.65;52.27;99220.59;5055890;28;20041;-94
2022/07/14 03:59:14;;;;;;;5.70;2.58;;;;;;;16.42;52.22;99194.78;5055450;28;20041;-94
2022/07/14 04:01:40;;;;;;;4.18;2.50;;;;;;;16.69;52.06;99221.34;5056481;28;20067;-94
2022/07/14 04:04:06;;;;;;;3.30;2.30;;;;;;;16.58;51.84;99189.59;5055961;28;20045;-90
2022/07/14 04:06:32;;;;;;;4.97;2.53;;;;;;;16.66;51.72;99203.56;5056250;28;20507;-91
2022/07/14 04:08:59;;;;;;;3.80;2.50;;;;;;;16.66;52.08;99208.06;5055826;28;20037;-93
2022/07/14 04:11:24;;;;;;;4.07;2.58;;;;;;;16.75;51.90;99213.03;5056058;28;20063;-92
2022/07/14 04:13:52;;;;;;;3.92;2.63;;;;;;;16.81;52.03;99223.53;5055901;28;20131;-93
2022/07/14 04:16:17;;;;;;;5.22;2.75;;;;;;;16.74;51.90;99206.78;5057915;28;20562;-94
2022/07/14 04:18:43;;;;;;;4.35;2.47;;;;;;;16.70;50.96;99185.47;5058004;28;20088;-94
2022/07/14 04:21:13;;;;;;;3.03;2.33;;;;;;;17.08;52.55;99226.75;5058216;28;20045;-92
2022/07/14 04:23:39;;;;;;;4.55;2.55;;;;;;;17.09;52.29;99214.16;5058938;28;20505;-93
2022/07/14 04:26:05;;;;;;;4.78;2.60;;;;;;;17.07;52.72;99213.38;5059533;28;20127;-92
2022/07/14 04:28:31;;;;;;;4.78;2.50;;;;;;;16.92;53.06;99199.72;5060117;28;20110;-93
2022/07/14 04:30:59;;;;;;;4.90;2.55;;;;;;;16.96;54.07;99227.31;5059802;28;20135;-92
2022/07/14 04:33:24;;;;;;;4.28;2.70;;;;;;;16.83;54.61;99232.38;5058278;28;20040;-93
2022/07/14 04:35:50;;;;;;;3.72;2.63;;;;;;;16.73;55.55;99223.81;5056452;28;20071;-95
2022/07/14 04:38:16;;;;;;;4.32;2.63;;;;;;;16.49;56.29;99192.72;5058007;28;20091;-94
2022/07/14 04:40:47;;;;;;;3.42;2.55;;;;;;;16.61;56.28;99219.88;5057712;28;20048;-93
2022/07/14 04:43:12;;;;;;;4.15;2.88;;;;;;;16.58;56.55;99225.38;5058047;28;20059;-94
2022/07/14 04:45:38;;;;;;;3.92;2.72;;;;;;;16.50;57.05;99221.28;5057543;28;20037;-93
2022/07/14 04:48:06;;;;;;;4.88;2.78;;;;;;;16.54;57.29;99218.38;5057137;28;20049;-93
2022/07/14 04:53:35;;;;;;;8.57;3.17;;;;;;;16.54;57.88;99220.22;5114819;27;20419;-95
2022/07/14 04:56:01;;;;;;;4.05;2.95;;;;;;;16.54;58.30;99214.84;5114524;28;20069;-93
2022/07/14 04:58:26;;;;;;;6.30;2.75;;;;;;;16.50;57.88;99197.13;5112815;28;20568;-93
2022/07/14 05:00:58;;;;;;;4.68;2.92;;;;;;;16.61;59.47;99205.56;5116032;28;20089;-94
2022/07/14 05:03:24;;;;;;;6.18;2.92;;;;;;;17.04;58.37;99235.88;5114569;28;20101;-94
2022/07/14 05:05:50;;;;;;;4.05;2.90;;;;;;;17.03;56.45;99221.59;5115155;28;20044;-94
2022/07/14 05:08:16;;;;;;;5.07;2.58;;;;;;;17.10;57.67;99205.19;5115598;28;20054;-94
2022/07/14 05:10:43;;;;;;;3.65;2.58;;;;;;;18.02;55.07;99247.34;5116759;28;20484;-93
2022/07/14 05:13:09;;;;;;;4.30;2.97;;;;;;;18.77;52.44;99228.25;5114229;27;20062;-94
2022/07/14 05:15:35;;;;;;;3.78;2.80;;;;;;;19.27;50.00;99213.88;5115082;28;20131;-94
2022/07/14 05:18:01;;;;;;;5.35;2.78;;;;;;;19.68;49.10;99203.44;5114888;28;20496;-94
2022/07/14 05:20:27;;;;;;;4.38;2.70;;;;;;;20.19;47.32;99205.03;5115498;28;20047;-92
2022/07/14 05:22:53;;;;;;;3.65;2.45;;;;;;;20.62;46.76;99234.91;5114593;28;20067;-93
2022/07/14 05:25:18;;;;;;;5.78;2.80;;;;;;;20.89;45.64;99233.22;5113250;28;20043;-92
2022/07/14 05:27:46;;;;;;;6.80;2.90;;;;;;;21.07;44.04;99216.81;5113250;28;20040;-94
2022/07/14 05:30:12;;;;;;;4.65;2.65;;;;;;;21.09;44.08;99212.16;5113399;28;20047;-95
2022/07/14 05:32:38;;;;;;;4.15;2.65;;;;;;;21.10;44.30;99203.97;5112033;28;20117;-92
2022/07/14 05:35:05;;;;;;;5.70;2.78;;;;;;;21.34;44.06;99225.00;5113785;28;20036;-93
2022/07/14 05:37:32;;;;;;;4.00;2.80;;;;;;;21.36;44.15;99217.66;5114053;28;20032;-93
2022/07/14 05:39:57;;;;;;;5.82;2.75;;;;;;;21.53;43.61;99222.88;5112928;28;20040;-94
2022/07/14 05:42:23;;;;;;;5.60;3.28;;;;;;;21.50;44.00;99217.66;5114251;28;20143;-96
2022/07/14 05:44:51;;;;;;;4.32;2.50;;;;;;;21.61;43.31;99230.50;5114806;28;20048;-93
2022/07/14 05:47:16;;;;;;;3.63;2.60;;;;;;;21.55;44.18;99214.66;5113586;28;20075;-94
2022/07/14 05:49:43;;;;;;;4.50;2.45;;;;;;;21.65;42.83;99223.03;5112125;28;20071;-92
2022/07/14 05:52:10;;;;;;;4.05;2.58;;;;;;;21.85;41.58;99241.53;5111777;28;20050;-93
2022/07/14 05:54:36;;;;;;;3.00;2.58;;;;;;;21.61;42.09;99202.56;5112575;28;20085;-94
2022/07/14 05:57:02;;;;;;;4.53;2.17;;;;;;;21.51;42.33;99214.00;5111984;28;20036;-91
2022/07/14 05:59:28;;;;;;;3.25;2.70;;;;;;;21.31;43.31;99217.06;5112334;28;20042;-93
2022/07/14 06:01:56;;;;;;;3.88;2.35;;;;;;;21.30;43.49;99209.94;5111776;28;20126;-95
2022/07/14 06:04:21;;;;;;;3.45;2.50;;;;;;;21.61;43.63;99218.81;5100541;28;20389;-94
2022/07/14 06:06:48;;;;;;;4.57;2.58;;;;;;;22.17;42.70;99225.00;5100078;28;20040;-93
2022/07/14 06:09:15;;;;;;;4.45;2.40;;;;;;;22.32;41.71;99231.25;5099488;28;20075;-94
2022/07/14 06:11:44;;;;;;;4.10;2.70;;;;;;;22.08;40.83;99203.94;5096718;28;20401;-95
2022/07/14 06:14:11;;;;;;;3.78;2.60;;;;;;;22.07;40.71;99194.94;5097236;28;20093;-94
2022/07/14 06:16:37;;;;;;;3.65;2.58;;;;;;;21.61;40.83;99189.91;5096708;28;20040;-95
2022/07/14 06:19:04;;;;;;;4.95;2.50;;;;;;;22.10;41.69;99215.56;5096419;28;20494;-94
2022/07/14 06:21:30;;;;;;;3.40;2.30;;;;;;;22.17;40.17;99211.44;5091803;28;20040;-95
2022/07/14 06:23:56;;;;;;;3.30;2.25;;;;;;;22.29;39.88;99197.09;5096955;28;20036;-92
2022/07/14 06:26:22;;;;;;;3.00;2.20;;;;;;;22.14;39.27;99206.22;5097140;28;20497;-93
2022/07/14 06:28:48;;;;;;;2.85;2.10;;;;;;;22.25;38.32;99209.13;5096942;28;20044;-95
2022/07/14 06:31:15;;;;;;;5.82;2.25;;;;;;;22.05;39.26;99204.13;5095813;28;20052;-94
2022/07/14 06:33:41;;;;;;;3.60;2.22;;;;;;;22.30;38.30;99197.97;5096071;28;20039;-93
2022/07/14 06:36:09;;;;;;;4.15;2.80;;;;;;;22.04;38.39;99192.44;5093992;28;20052;-93
2022/07/14 06:38:35;;;;;;;5.40;2.30;;;;;;;22.40;38.04;99220.72;5095119;28;20038;-94
2022/07/14 06:41:01;;;;;;;5.22;2.40;;;;;;;22.50;37.28;99202.00;5095946;28;20062;-94
2022/07/14 06:43:27;;;;;;;2.58;2.10;;;;;;;22.60;36.12;99192.28;5096011;28;20054;-94
2022/07/14 06:45:53;;;;;;;4.03;2.20;;;;;;;22.67;36.31;99188.16;5096657;28;20130;-93
2022/07/14 06:48:19;;;;;;;2.75;2.15;;;;;;;22.75;36.31;99184.91;5097004;28;20040;-93
2022/07/14 06:50:45;;;;;;;3.40;2.20;;;;;;;22.78;36.28;99206.38;5100177;28;20382;-93
2022/07/14 06:53:13;;;;;;;3.08;1.92;;;;;;;22.73;35.52;99182.28;5097354;28;20097;-93
2022/07/14 06:55:39;;;;;;;4.15;2.10;;;;;;;23.05;35.16;99195.44;5097252;28;20044;-93
2022/07/14 06:58:08;;;;;;;4.30;2.30;;;;;;;23.16;36.55;99171.13;5100670;28;20040;-92
2022/07/14 07:00:34;;;;;;;3.42;2.28;;;;;;;23.54;35.51;99205.44;5099039;28;20048;-95
2022/07/14 07:03:00;;;;;;;3.53;2.30;;;;;;;23.32;35.42;99194.41;5099964;28;20043;-94
2022/07/14 07:08:28;;;;;;;3.30;2.40;;;;;;;23.02;35.50;99203.78;5157018;27;20385;-94
2022/07/14 07:10:55;;;;;;;3.25;2.10;;;;;;;22.91;35.21;99162.97;5158032;27;20069;-94
2022/07/14 07:13:21;;;;;;;3.40;2.40;;;;;;;22.58;35.81;99158.97;5156217;27;20116;-94
2022/07/14 07:15:47;;;;;;;3.85;2.17;;;;;;;23.04;35.16;99157.56;5156577;27;20043;-94
2022/07/14 07:18:13;;;;;;;3.55;2.30;;;;;;;23.33;34.52;99171.72;5157854;27;20043;-93
2022/07/14 07:20:39;;;;;;;4.15;2.20;;;;;;;23.62;33.08;99168.72;5157187;27;20035;-93
2022/07/14 07:23:06;;;;;;;2.95;2.20;;;;;;;23.87;31.68;99176.75;5155639;27;20127;-92
2022/07/14 07:25:33;;;;;;;4.38;2.15;;;;;;;24.28;33.51;99169.16;5156887;27;20043;-94
2022/07/14 07:27:59;;;;;;;4.53;2.63;;;;;;;24.45;32.36;99148.81;5157938;27;20063;-94
2022/07/14 07:30:26;;;;;;;4.80;2.58;;;;;;;24.88;32.02;99168.06;5157159;27;20110;-92
2022/07/14 07:32:52;;;;;;;3.50;2.33;;;;;;;25.01;31.64;99162.53;5156621;27;20065;-96
2022/07/14 07:35:18;;;;;;;3.25;2.30;;;;;;;24.79;30.21;99133.47;5157861;27;20035;-93
2022/07/14 07:37:45;;;;;;;4.93;2.65;;;;;;;25.10;31.73;99152.75;5158062;27;20107;-93
2022/07/14 07:40:12;;;;;;;3.28;2.20;;;;;;;25.30;31.55;99154.72;5158501;27;20042;-93
2022/07/14 07:42:39;;;;;;;5.07;2.40;;;;;;;25.59;30.58;99152.34;5154908;27;20035;-93
2022/07/14 07:45:06;;;;;;;3.13;2.40;;;;;;;25.87;30.22;99152.72;5153554;27;20076;-93
2022/07/14 07:47:32;;;;;;;3.30;2.10;;;;;;;25.89;30.01;99142.59;5153052;27;20087;-91
2022/07/14 07:49:58;;;;;;;4.10;2.30;;;;;;;25.96;30.18;99126.63;5155733;27;20035;-93
2022/07/14 07:52:24;;;;;;;4.50;2.10;;;;;;;26.03;29.68;99122.38;5157063;27;20103;-92
2022/07/14 07:54:50;;;;;;;4.72;2.35;;;;;;;26.17;29.54;99143.84;5155264;27;20134;-94
2022/07/14 07:57:16;;;;;;;3.10;2.10;;;;;;;26.42;29.77;99137.16;5155651;27;20571;-95
2022/07/14 07:59:43;;;;;;;4.68;2.33;;;;;;;26.66;29.71;99137.91;5150512;27;20035;-92
2022/07/14 08:02:08;;;;;;;3.22;2.20;;;;;;;26.48;28.56;99119.41;5150428;27;20043;-96
2022/07/14 08:04:34;;;;;;;3.33;2.25;;;;;;;26.33;29.56;99118.88;5150526;27;20116;-92
2022/07/14 08:07:00;;;;;;;3.00;2.35;;;;;;;26.22;28.71;99124.38;5148556;27;20396;-92
2022/07/14 08:09:26;;;;;;;4.93;2.50;;;;;;;26.50;29.25;99150.13;5149847;27;20042;-94
2022/07/14 08:11:52;;;;;;;2.83;2.15;;;;;;;26.72;28.52;99138.22;5149664;27;20046;-93
2022/07/14 08:17:23;;;;;;;5.03;2.35;;;;;;;27.29;27.55;99110.47;5102360;27;1344409;-93
2022/07/14 08:19:50;;;;;;;3.22;2.40;;;;;;;26.95;27.05;99116.19;5129392;27;20047;-94
2022/07/14 08:22:23;;;;;;;4.85;2.80;;;;;;;27.18;27.44;99116.88;5124783;27;20141;-92
2022/07/14 08:24:49;;;;;;;5.82;2.55;;;;;;;27.44;27.36;99098.13;5134063;27;20063;-93
2022/07/14 08:27:14;;;;;;;3.20;2.50;;;;;;;27.63;26.53;99116.44;5127065;27;20059;-95
2022/07/14 08:29:41;;;;;;;3.95;2.50;;;;;;;27.60;26.19;99090.25;5125933;27;20076;-93
2022/07/14 08:32:07;;;;;;;3.60;2.50;;;;;;;27.93;26.27;99110.00;5134638;27;20040;-93
2022/07/14 08:34:34;;;;;;;4.93;2.80;;;;;;;28.01;26.23;99107.41;5132208;27;20369;-92
2022/07/14 08:37:00;;;;;;;4.20;2.58;;;;;;;28.13;25.11;99115.44;5133498;27;20039;-93
2022/07/14 08:39:26;;;;;;;4.82;2.95;;;;;;;27.54;25.58;99120.88;5136265;27;20519;-92
2022/07/14 08:41:54;;;;;;;3.50;2.53;;;;;;;27.83;26.95;99104.50;5130087;27;20484;-92
2022/07/14 08:44:20;;;;;;;;;;;;;;;28.32;24.64;99114.56;5131981;27;20516;-93
2022/07/14 08:46:46;;;;;;;3.92;2.85;;;;;;;28.22;23.88;99092.72;5130750;27;19915;-92
2022/07/14 08:49:14;;;;;;;4.80;3.00;;;;;;;28.55;25.04;99106.94;5133617;27;20489;-95
2022/07/14 08:51:42;;;;;;;7.03;2.90;;;;;;;28.75;23.80;99096.78;5134002;27;20457;-93
2022/07/14 08:54:09;;;;;;;4.53;2.80;;;;;;;28.65;24.81;99100.44;5134367;27;20050;-90
2022/07/14 08:56:35;;;;;;;4.50;3.00;;;;;;;28.78;24.08;99080.06;5135737;27;20054;-94
2022/07/14 08:59:00;;;;;;;4.70;3.08;;;;;;;29.08;24.13;99084.38;5128863;27;20039;-94
2022/07/14 09:01:26;;;;;;;4.80;2.80;;;;;;;29.42;24.53;99089.28;5119090;27;20032;-95
2022/07/14 09:03:52;;;;;;;5.10;3.38;;;;;;;29.63;23.28;99089.84;5127997;27;20365;-94
2022/07/14 09:06:47;;;;;;;4.35;3.60;;;;;;;29.90;21.90;99099.06;5127557;27;20040;-93
2022/07/14 09:09:16;;;;;;;4.88;3.90;;;;;;;30.11;22.94;99096.00;5132862;27;20035;-94
2022/07/14 09:11:52;;;;;;;4.63;3.58;;;;;;;30.13;21.37;99079.38;5143826;27;20058;-94
2022/07/14 09:14:18;;;;;;;5.53;3.80;;;;;;;30.16;22.37;99088.13;5139869;27;20126;-94
2022/07/14 09:16:44;;;;;;;5.65;3.80;;;;;;;30.26;22.13;99079.81;5129871;27;20175;-93
2022/07/14 09:19:13;;;;;;;4.30;3.72;;;;;;;30.16;22.66;99079.91;5132127;27;20043;-92
2022/07/14 09:21:42;;;;;;;5.55;3.40;;;;;;;30.12;22.06;99073.00;5132817;27;20145;-92
2022/07/14 09:24:10;;;;;;;4.65;3.95;;;;;;;29.72;22.24;99084.50;5131170;27;20442;-94
2022/07/14 09:26:42;;;;;;;5.32;4.20;;;;;;;29.55;22.02;99080.69;5127029;27;20035;-93
2022/07/14 09:29:09;;;;;;;5.85;4.30;;;;;;;29.72;21.71;99079.00;5116348;27;20118;-93
2022/07/14 09:31:35;;;;;;;4.80;4.30;;;;;;;30.07;21.50;99076.22;5124452;27;20326;-94
2022/07/14 09:34:02;;;;;;;5.35;4.70;;;;;;;30.14;20.74;99070.13;5120128;27;20096;-95
2022/07/14 09:36:29;;;;;;;5.25;4.75;;;;;;;30.36;22.14;99063.28;5133794;27;20510;-94
2022/07/14 09:38:59;;;;;;;4.97;4.23;;;;;;;30.49;21.67;99061.84;5113938;27;20048;-96
2022/07/14 09:41:29;;;;;;;4.95;4.45;;;;;;;30.84;21.47;99073.72;5123819;27;20039;-94
2022/07/14 09:44:10;;;;;;;6.53;5.07;;;;;;;30.73;20.84;99065.75;5120698;27;20073;-95
2022/07/14 09:46:43;;;;;;;6.50;5.20;;;;;;;30.66;20.41;99037.22;5118521;27;20040;-96
2022/07/14 09:49:10;;;;;;;7.30;5.07;;;;;;;30.91;20.61;99036.34;5117520;27;20040;-95
2022/07/14 09:51:52;;;;;;;6.40;5.68;;;;;;;31.14;20.00;99046.72;5107132;27;20130;-94
2022/07/14 09:54:39;;;;;;;8.20;5.53;;;;;;;31.22;20.10;99046.75;5119062;27;20059;-95
2022/07/14 09:57:08;;;;;;;7.28;5.63;;;;;;;31.29;19.55;99045.06;5114710;27;20085;-92
2022/07/14 09:59:43;;;;;;;6.68;5.93;;;;;;;31.23;19.16;99047.59;5119795;27;20405;-94
2022/07/14 10:02:14;;;;;;;6.30;5.70;;;;;;;31.45;18.75;99048.91;5122335;27;20108;-96
2022/07/14 10:04:41;;;;;;;6.20;5.55;;;;;;;31.54;19.12;99036.06;5123199;27;20039;-93
2022/07/14 10:07:07;;;;;;;6.45;5.30;;;;;;;31.73;19.59;99043.97;5106099;27;20115;-92
2022/07/14 10:09:37;;;;;;;7.90;6.10;;;;;;;31.90;18.93;99031.06;5129535;27;20039;-95
2022/07/14 10:12:03;;;;;;;7.68;6.40;;;;;;;31.85;18.82;99019.75;5137009;27;20040;-92
2022/07/14 10:14:31;;;;;;;9.63;6.25;;;;;;;31.97;18.54;99018.38;5117707;27;20054;-94
2022/07/14 10:16:58;;;;;;;6.85;6.15;;;;;;;31.85;17.10;99019.75;5115997;27;20052;-94
2022/07/14 10:19:25;;;;;;;6.38;5.78;;;;;;;31.62;17.32;99003.94;5123155;28;20075;-93
2022/07/14 10:21:54;;;;;;;7.18;6.57;;;;;;;31.65;17.46;99024.72;5113463;27;20043;-93
2022/07/14 10:24:21;;;;;;;7.22;6.45;;;;;;;31.59;17.23;99012.50;5122165;27;20059;-93
2022/07/14 10:26:47;;;;;;;7.93;6.05;;;;;;;31.74;17.13;99007.19;5120475;27;20032;-92
2022/07/14 10:29:14;;;;;;;8.55;5.95;;;;;;;31.96;17.51;99015.78;5118023;27;20040;-93
2022/07/14 10:31:58;;;;;;;6.40;5.57;;;;;;;32.10;16.80;99029.75;5121739;27;20032;-94
2022/07/14 10:34:33;;;;;;;7.07;5.63;;;;;;;32.16;15.77;99019.06;5112369;27;20493;-95
2022/07/14 10:37:05;;;;;;;6.90;5.65;;;;;;;32.16;16.12;99016.31;5118005;27;20032;-95
2022/07/14 10:39:38;;;;;;;8.48;5.63;;;;;;;32.09;15.98;98995.00;5126575;27;20039;-95
2022/07/14 10:42:15;;;;;;;6.05;5.00;;;;;;;31.96;16.41;98991.88;5122283;27;20043;-93
2022/07/14 10:44:45;;;;;;;5.78;4.60;;;;;;;32.03;16.50;98987.47;5122044;27;20031;-94
2022/07/14 10:47:14;;;;;;;5.35;4.57;;;;;;;32.15;16.19;98970.59;5114359;27;20047;-93
2022/07/14 10:50:06;;;;;;;8.35;4.78;;;;;;;32.46;16.28;98993.53;5119539;27;20134;-93
2022/07/14 10:52:35;;;;;;;8.15;4.32;;;;;;;32.03;15.64;98961.81;5132629;27;20152;-96
2022/07/14 10:55:12;;;;;;;6.40;4.10;;;;;;;32.24;16.00;98973.13;5116804;27;20115;-95
2022/07/14 10:57:38;;;;;;;5.25;4.57;;;;;;;32.40;15.35;98971.38;5113409;27;20126;-92
2022/07/14 11:00:44;;;;;;;5.03;4.35;;;;;;;32.53;15.87;98968.94;5125542;27;20092;-95
2022/07/14 11:03:24;;;;;;;5.07;3.83;;;;;;;32.82;15.19;98984.84;5112912;28;20039;-94
2022/07/14 11:06:27;;;;;;;4.45;3.80;;;;;;;32.79;14.67;98982.47;5118196;27;20081;-93
2022/07/14 11:09:39;;;;;;;5.68;4.03;;;;;;;32.78;15.10;98974.38;5110194;28;20125;-95
2022/07/14 11:12:17;;;;;;;4.82;3.67;;;;;;;32.70;16.09;98969.75;5110928;27;20074;-95
2022/07/14 11:14:44;;;;;;;6.93;3.88;;;;;;;32.50;14.74;98964.63;5129779;27;20043;-93
2022/07/14 11:17:43;;;;;;;5.05;3.72;;;;;;;32.19;14.58;98950.78;5127936;27;20047;-96
2022/07/14 11:20:12;;;;;;;4.18;3.38;;;;;;;32.49;14.47;98949.16;5074874;28;20045;-92
2022/07/14 11:22:40;;;;;;;4.72;3.53;;;;;;;32.78;15.19;98958.69;5083980;28;20204;-95
2022/07/14 11:25:07;;;;;;;5.35;3.70;;;;;;;32.94;15.33;98966.00;5076222;28;20064;-96
2022/07/14 11:27:39;;;;;;;4.00;3.17;;;;;;;32.85;14.99;98934.88;5079076;28;20048;-95
2022/07/14 11:30:28;;;;;;;4.07;3.50;;;;;;;33.07;14.83;98948.91;5077835;28;20048;-96
2022/07/14 11:33:07;;;;;;;4.60;3.40;;;;;;;33.25;13.90;98946.75;5078682;28;20051;-96
2022/07/14 11:36:21;;;;;;;3.70;3.20;;;;;;;33.27;14.04;98939.16;5081768;28;20067;-94
2022/07/14 11:38:37;;;;;;;4.40;3.13;;;;;;;33.34;14.08;98931.00;5065809;28;20047;-95
2022/07/14 11:41:10;;;;;;;4.45;3.40;;;;;;;33.46;13.87;98931.41;5074910;28;20041;-96
2022/07/14 11:43:48;;;;;;;3.65;3.10;;;;;;;33.62;13.60;98936.00;5074937;28;20108;-95
2022/07/14 11:46:17;;;;;;;6.25;3.28;;;;;;;33.68;13.63;98919.56;5084900;28;20039;-94
2022/07/14 11:48:44;;;;;;;4.05;3.05;;;;;;;33.85;13.09;98928.50;5076521;28;20410;-94
2022/07/14 11:51:14;;;;;;;3.90;2.80;;;;;;;33.87;12.82;98920.91;5094328;28;20043;-95